createdAt,value
2023-04-22T00:00:24.263Z,1001.11
2023-04-22T00:01:24.243Z,1001.17
2023-04-22T00:02:24.304Z,1001.13
2023-04-22T00:03:24.378Z,1001.12
2023-04-22T00:04:24.386Z,1001.12
2023-04-22T00:05:24.338Z,1001.16
2023-04-22T00:06:24.231Z,1001.09
2023-04-22T00:07:24.218Z,1001.08
2023-04-22T00:08:24.208Z,1001.10
2023-04-22T00:09:24.195Z,1001.13
2023-04-22T00:10:24.190Z,1001.09
2023-04-22T00:11:24.185Z,1001.10
2023-04-22T00:12:24.173Z,1001.08
2023-04-22T00:13:24.178Z,1001.07
2023-04-22T00:14:24.159Z,1001.01
2023-04-22T00:15:24.153Z,1001.07
2023-04-22T00:16:24.241Z,1001.06
2023-04-22T00:17:24.174Z,1001.08
2023-04-22T00:18:24.140Z,1001.06
2023-04-22T00:19:24.128Z,1001.01
2023-04-22T00:20:24.127Z,1001.03
2023-04-22T00:21:24.116Z,1001.04
2023-04-22T00:22:24.111Z,1001.01
2023-04-22T00:23:24.110Z,1001.05
2023-04-22T00:24:24.094Z,1001.08
2023-04-22T00:25:24.096Z,1001.06
2023-04-22T00:26:24.098Z,1001.08
2023-04-22T00:27:24.077Z,1001.07
2023-04-22T00:28:24.074Z,1001.07
2023-04-22T00:29:24.066Z,1001.10
2023-04-22T00:30:24.057Z,1001.12
2023-04-22T00:31:24.094Z,1001.09
2023-04-22T00:32:24.061Z,1001.09
2023-04-22T00:33:24.042Z,1001.08
2023-04-22T00:34:24.030Z,1001.08
2023-04-22T00:35:24.031Z,1001.11
2023-04-22T00:36:24.016Z,1001.10
2023-04-22T00:37:24.016Z,1001.06
2023-04-22T00:38:24.002Z,1001.08
2023-04-22T00:39:24.001Z,1001.09
2023-04-22T00:40:23.994Z,1001.12
2023-04-22T00:41:24.005Z,1001.12
2023-04-22T00:42:23.979Z,1001.11
2023-04-22T00:43:23.972Z,1001.12
2023-04-22T00:44:23.956Z,1001.14
2023-04-22T00:45:23.955Z,1001.16
2023-04-22T00:46:24.018Z,1001.16
2023-04-22T00:47:23.977Z,1001.15
2023-04-22T00:48:25.179Z,1001.13
2023-04-22T00:49:23.931Z,1001.10
2023-04-22T00:50:23.934Z,1001.11
2023-04-22T00:51:23.935Z,1001.13
2023-04-22T00:52:23.902Z,1001.18
2023-04-22T00:53:23.917Z,1001.15
2023-04-22T00:54:23.903Z,1001.12
2023-04-22T00:55:23.890Z,1001.15
2023-04-22T00:56:23.881Z,1001.17
2023-04-22T00:57:23.881Z,1001.16
2023-04-22T00:58:23.879Z,1001.19
2023-04-22T00:59:23.868Z,1001.19
2023-04-22T01:00:23.861Z,1001.18
2023-04-22T01:01:23.893Z,1001.18
2023-04-22T01:02:23.873Z,1001.10
2023-04-22T01:03:24.078Z,1001.14
2023-04-22T01:04:23.918Z,1001.13
2023-04-22T01:05:23.827Z,1001.15
2023-04-22T01:06:23.825Z,1001.22
2023-04-22T01:07:23.815Z,1001.14
2023-04-22T01:08:23.807Z,1001.13
2023-04-22T01:09:23.812Z,1001.13
2023-04-22T01:10:23.798Z,1001.11
2023-04-22T01:11:23.795Z,1001.09
2023-04-22T01:12:23.803Z,1001.08
2023-04-22T01:13:23.785Z,1001.08
2023-04-22T01:14:23.779Z,1001.06
2023-04-22T01:15:23.775Z,1001.08
2023-04-22T01:16:23.823Z,1001.04
2023-04-22T01:17:23.765Z,1001.06
2023-04-22T01:18:23.757Z,1001.06
2023-04-22T01:19:23.738Z,1001.04
2023-04-22T01:20:23.735Z,1001.03
2023-04-22T01:21:23.731Z,1001.05
2023-04-22T01:22:23.719Z,1001.05
2023-04-22T01:23:23.714Z,1001.03
2023-04-22T01:24:23.714Z,1001.07
2023-04-22T01:25:23.699Z,1001.06
2023-04-22T01:26:23.695Z,1000.98
2023-04-22T01:27:23.701Z,1001.06
2023-04-22T01:28:23.683Z,1001.04
2023-04-22T01:29:23.692Z,1001.02
2023-04-22T01:30:23.671Z,1001.01
2023-04-22T01:31:23.719Z,1000.97
2023-04-22T01:32:23.825Z,1000.97
2023-04-22T01:33:23.668Z,1000.99
2023-04-22T01:34:23.644Z,1000.97
2023-04-22T01:35:23.645Z,1000.96
2023-04-22T01:36:23.634Z,1000.96
2023-04-22T01:37:23.631Z,1000.94
2023-04-22T01:38:23.619Z,1000.98
2023-04-22T01:39:23.616Z,1000.96
2023-04-22T01:40:23.604Z,1000.96
2023-04-22T01:41:23.594Z,1000.95
2023-04-22T01:42:23.597Z,1000.95
2023-04-22T01:43:23.597Z,1000.97
2023-04-22T01:44:23.646Z,1000.94
2023-04-22T01:45:23.585Z,1001.00
2023-04-22T01:46:23.589Z,1001.02
2023-04-22T01:47:23.570Z,1001.00
2023-04-22T01:48:23.558Z,1001.03
2023-04-22T01:49:23.551Z,1001.03
2023-04-22T01:50:23.549Z,1000.97
2023-04-22T01:51:23.558Z,1000.94
2023-04-22T01:52:23.542Z,1000.92
2023-04-22T01:53:23.534Z,1000.89
2023-04-22T01:54:23.521Z,1000.84
2023-04-22T01:55:23.526Z,1000.80
2023-04-22T01:56:23.507Z,1000.78
2023-04-22T01:57:23.500Z,1000.78
2023-04-22T01:58:23.500Z,1000.83
2023-04-22T01:59:23.494Z,1000.83
2023-04-22T02:00:23.482Z,1000.88
2023-04-22T02:01:23.533Z,1000.87
2023-04-22T02:02:23.603Z,1000.86
2023-04-22T02:03:23.630Z,1000.88
2023-04-22T02:04:23.465Z,1000.86
2023-04-22T02:05:23.451Z,1000.90
2023-04-22T02:06:23.445Z,1000.92
2023-04-22T02:07:23.449Z,1000.91
2023-04-22T02:08:23.437Z,1000.89
2023-04-22T02:09:23.427Z,1000.82
2023-04-22T02:10:23.423Z,1000.84
2023-04-22T02:11:23.417Z,1000.80
2023-04-22T02:12:23.412Z,1000.82
2023-04-22T02:13:23.402Z,1000.81
2023-04-22T02:14:23.409Z,1000.78
2023-04-22T02:15:23.386Z,1000.77
2023-04-22T02:16:23.441Z,1000.74
2023-04-22T02:17:23.376Z,1000.71
2023-04-22T02:18:23.370Z,1000.75
2023-04-22T02:19:23.372Z,1000.69
2023-04-22T02:20:23.355Z,1000.72
2023-04-22T02:21:23.353Z,1000.73
2023-04-22T02:22:23.350Z,1000.69
2023-04-22T02:23:23.335Z,1000.68
2023-04-22T02:24:23.327Z,1000.68
2023-04-22T02:25:23.332Z,1000.71
2023-04-22T02:26:23.322Z,1000.71
2023-04-22T02:27:23.322Z,1000.74
2023-04-22T02:28:23.320Z,1000.72
2023-04-22T02:29:23.304Z,1000.75
2023-04-22T02:30:23.302Z,1000.76
2023-04-22T02:31:23.375Z,1000.79
2023-04-22T02:32:23.311Z,1000.83
2023-04-22T02:33:23.293Z,1000.80
2023-04-22T02:34:23.278Z,1000.79
2023-04-22T02:35:23.265Z,1000.77
2023-04-22T02:36:23.256Z,1000.83
2023-04-22T02:37:23.254Z,1000.83
2023-04-22T02:38:23.247Z,1000.83
2023-04-22T02:39:23.257Z,1000.84
2023-04-22T02:40:23.236Z,1000.83
2023-04-22T02:41:23.231Z,1000.83
2023-04-22T02:42:23.228Z,1000.82
2023-04-22T02:43:23.226Z,1000.86
2023-04-22T02:44:23.223Z,1000.85
2023-04-22T02:45:23.213Z,1000.85
2023-04-22T02:46:23.256Z,1000.86
2023-04-22T02:47:23.203Z,1000.85
2023-04-22T02:48:23.189Z,1000.84
2023-04-22T02:49:23.217Z,1000.81
2023-04-22T02:50:23.179Z,1000.82
2023-04-22T02:51:23.165Z,1000.81
2023-04-22T02:52:23.166Z,1000.75
2023-04-22T02:53:23.152Z,1000.76
2023-04-22T02:54:23.162Z,1000.73
2023-04-22T02:55:23.140Z,1000.71
2023-04-22T02:56:23.131Z,1000.71
2023-04-22T02:57:23.131Z,1000.66
2023-04-22T02:58:23.125Z,1000.70
2023-04-22T02:59:23.113Z,1000.66
2023-04-22T03:00:23.122Z,1000.64
2023-04-22T03:01:23.213Z,1000.63
2023-04-22T03:02:23.221Z,1000.64
2023-04-22T03:03:23.251Z,1000.58
2023-04-22T03:04:23.273Z,1000.57
2023-04-22T03:05:23.078Z,1000.59
2023-04-22T03:06:23.080Z,1000.58
2023-04-22T03:07:23.072Z,1000.57
2023-04-22T03:08:23.059Z,1000.56
2023-04-22T03:09:23.055Z,1000.61
2023-04-22T03:10:23.069Z,1000.60
2023-04-22T03:11:23.057Z,1000.61
2023-04-22T03:12:23.041Z,1000.66
2023-04-22T03:13:23.026Z,1000.65
2023-04-22T03:14:23.024Z,1000.61
2023-04-22T03:15:23.017Z,1000.60
2023-04-22T03:16:23.090Z,1000.61
2023-04-22T03:17:23.032Z,1000.60
2023-04-22T03:18:23.004Z,1000.54
2023-04-22T03:19:23.000Z,1000.59
2023-04-22T03:20:22.993Z,1000.58
2023-04-22T03:21:23.015Z,1000.57
2023-04-22T03:22:22.987Z,1000.59
2023-04-22T03:23:22.981Z,1000.58
2023-04-22T03:24:22.959Z,1000.56
2023-04-22T03:25:22.972Z,1000.59
2023-04-22T03:26:22.952Z,1000.60
2023-04-22T03:27:22.945Z,1000.56
2023-04-22T03:28:22.940Z,1000.58
2023-04-22T03:29:22.946Z,1000.57
2023-04-22T03:30:22.934Z,1000.59
2023-04-22T03:31:22.936Z,1000.55
2023-04-22T03:32:22.960Z,1000.55
2023-04-22T03:33:22.923Z,1000.59
2023-04-22T03:34:22.922Z,1000.53
2023-04-22T03:35:22.952Z,1000.54
2023-04-22T03:36:22.895Z,1000.55
2023-04-22T03:37:22.895Z,1000.58
2023-04-22T03:38:22.883Z,1000.59
2023-04-22T03:39:22.871Z,1000.57
2023-04-22T03:40:22.865Z,1000.63
2023-04-22T03:41:22.857Z,1000.57
2023-04-22T03:42:22.854Z,1000.56
2023-04-22T03:43:22.848Z,1000.58
2023-04-22T03:44:22.839Z,1000.59
2023-04-22T03:45:22.852Z,1000.57
2023-04-22T03:46:22.873Z,1000.57
2023-04-22T03:47:22.857Z,1000.54
2023-04-22T03:48:22.812Z,1000.52
2023-04-22T03:49:22.813Z,1000.51
2023-04-22T03:50:22.822Z,1000.50
2023-04-22T03:51:22.803Z,1000.48
2023-04-22T03:52:22.784Z,1000.44
2023-04-22T03:53:22.794Z,1000.44
2023-04-22T03:54:22.782Z,1000.44
2023-04-22T03:55:22.773Z,1000.44
2023-04-22T03:56:22.771Z,1000.45
2023-04-22T03:57:22.754Z,1000.42
2023-04-22T03:58:22.765Z,1000.39
2023-04-22T03:59:22.742Z,1000.33
2023-04-22T04:00:22.778Z,1000.30
2023-04-22T04:01:22.732Z,1000.31
2023-04-22T04:02:22.875Z,1000.29
2023-04-22T04:03:22.891Z,1000.27
2023-04-22T04:04:22.907Z,1000.20
2023-04-22T04:05:22.871Z,1000.12
2023-04-22T04:06:22.703Z,1000.19
2023-04-22T04:07:22.707Z,1000.17
2023-04-22T04:08:22.692Z,1000.10
2023-04-22T04:09:22.694Z,1000.10
2023-04-22T04:10:22.707Z,1000.08
2023-04-22T04:11:22.666Z,1000.08
2023-04-22T04:12:22.660Z,1000.08
2023-04-22T04:13:22.656Z,1000.13
2023-04-22T04:14:22.650Z,1000.14
2023-04-22T04:15:22.650Z,1000.16
2023-04-22T04:16:22.837Z,1000.17
2023-04-22T04:17:22.652Z,1000.19
2023-04-22T04:18:22.626Z,1000.19
2023-04-22T04:19:22.619Z,1000.14
2023-04-22T04:20:22.629Z,1000.14
2023-04-22T04:21:22.616Z,1000.10
2023-04-22T04:22:22.602Z,1000.08
2023-04-22T04:23:22.608Z,1000.08
2023-04-22T04:24:22.589Z,1000.10
2023-04-22T04:25:22.599Z,1000.05
2023-04-22T04:26:22.577Z,1000.03
2023-04-22T04:27:22.565Z,1000.06
2023-04-22T04:28:22.561Z,1000.06
2023-04-22T04:29:22.555Z,1000.05
2023-04-22T04:30:22.555Z,1000.04
2023-04-22T04:31:22.542Z,1000.05
2023-04-22T04:32:22.606Z,1000.04
2023-04-22T04:33:22.532Z,1000.04
2023-04-22T04:34:22.514Z,1000.10
2023-04-22T04:35:22.513Z,1000.13
2023-04-22T04:36:22.507Z,1000.16
2023-04-22T04:37:22.503Z,1000.13
2023-04-22T04:38:22.500Z,1000.07
2023-04-22T04:39:22.488Z,1000.10
2023-04-22T04:40:22.492Z,1000.10
2023-04-22T04:41:22.479Z,1000.08
2023-04-22T04:42:22.464Z,1000.11
2023-04-22T04:43:22.463Z,1000.08
2023-04-22T04:44:22.466Z,1000.00
2023-04-22T04:45:22.453Z,1000.04
2023-04-22T04:46:22.456Z,1000.03
2023-04-22T04:47:22.463Z,1000.00
2023-04-22T04:48:22.426Z,1000.04
2023-04-22T04:49:22.416Z,1000.07
2023-04-22T04:50:22.419Z,1000.05
2023-04-22T04:51:22.418Z,1000.09
2023-04-22T04:52:22.458Z,1000.12
2023-04-22T04:53:22.404Z,1000.09
2023-04-22T04:54:22.406Z,1000.11
2023-04-22T04:55:22.390Z,1000.10
2023-04-22T04:56:22.395Z,1000.14
2023-04-22T04:57:22.397Z,1000.13
2023-04-22T04:58:22.359Z,1000.22
2023-04-22T04:59:22.355Z,1000.16
2023-04-22T05:00:22.348Z,1000.14
2023-04-22T05:01:22.403Z,1000.12
2023-04-22T05:02:22.553Z,1000.12
2023-04-22T05:03:22.436Z,1000.11
2023-04-22T05:04:22.457Z,1000.13
2023-04-22T05:05:22.327Z,1000.12
2023-04-22T05:06:22.327Z,1000.16
2023-04-22T05:07:22.314Z,1000.14
2023-04-22T05:08:22.317Z,1000.13
2023-04-22T05:09:22.296Z,1000.17
2023-04-22T05:10:22.303Z,1000.21
2023-04-22T05:11:22.287Z,1000.22
2023-04-22T05:12:22.285Z,1000.18
2023-04-22T05:13:22.269Z,1000.22
2023-04-22T05:14:22.288Z,1000.23
2023-04-22T05:15:22.268Z,1000.17
2023-04-22T05:16:22.274Z,1000.19
2023-04-22T05:17:22.288Z,1000.24
2023-04-22T05:18:22.257Z,1000.20
2023-04-22T05:19:22.248Z,1000.29
2023-04-22T05:20:22.237Z,1000.28
2023-04-22T05:21:22.226Z,1000.25
2023-04-22T05:22:22.223Z,1000.24
2023-04-22T05:23:22.216Z,1000.22
2023-04-22T05:24:22.203Z,1000.31
2023-04-22T05:25:22.197Z,1000.30
2023-04-22T05:26:22.201Z,1000.34
2023-04-22T05:27:22.197Z,1000.31
2023-04-22T05:28:22.178Z,1000.34
2023-04-22T05:29:22.180Z,1000.24
2023-04-22T05:30:22.188Z,1000.28
2023-04-22T05:31:22.232Z,1000.20
2023-04-22T05:32:22.205Z,1000.22
2023-04-22T05:33:22.161Z,1000.22
2023-04-22T05:34:22.153Z,1000.27
2023-04-22T05:35:22.133Z,1000.37
2023-04-22T05:36:22.131Z,1000.31
2023-04-22T05:37:22.125Z,1000.30
2023-04-22T05:38:22.134Z,1000.32
2023-04-22T05:39:22.125Z,1000.33
2023-04-22T05:40:22.109Z,1000.29
2023-04-22T05:41:22.101Z,1000.31
2023-04-22T05:42:22.095Z,1000.30
2023-04-22T05:43:22.088Z,1000.30
2023-04-22T05:44:22.080Z,1000.30
2023-04-22T05:45:22.074Z,1000.32
2023-04-22T05:46:22.154Z,1000.35
2023-04-22T05:47:22.145Z,1000.30
2023-04-22T05:48:22.059Z,1000.33
2023-04-22T05:49:22.056Z,1000.34
2023-04-22T05:50:23.447Z,1000.27
2023-04-22T05:51:22.059Z,1000.34
2023-04-22T05:52:22.026Z,1000.31
2023-04-22T05:53:22.023Z,1000.30
2023-04-22T05:54:22.022Z,1000.33
2023-04-22T05:55:22.016Z,1000.29
2023-04-22T05:56:22.019Z,1000.30
2023-04-22T05:57:22.001Z,1000.28
2023-04-22T05:58:21.999Z,1000.30
2023-04-22T05:59:22.020Z,1000.26
2023-04-22T06:00:21.984Z,1000.26
2023-04-22T06:01:21.975Z,1000.24
2023-04-22T06:02:22.100Z,1000.26
2023-04-22T06:03:22.152Z,1000.24
2023-04-22T06:04:22.257Z,1000.26
2023-04-22T06:05:22.025Z,1000.18
2023-04-22T06:06:21.944Z,1000.17
2023-04-22T06:07:21.943Z,1000.10
2023-04-22T06:08:21.920Z,1000.13
2023-04-22T06:09:21.933Z,1000.11
2023-04-22T06:10:21.933Z,1000.16
2023-04-22T06:11:21.916Z,1000.12
2023-04-22T06:12:21.903Z,1000.14
2023-04-22T06:13:21.899Z,1000.12
2023-04-22T06:14:21.898Z,1000.12
2023-04-22T06:15:21.888Z,1000.09
2023-04-22T06:16:21.895Z,1000.02
2023-04-22T06:17:21.908Z,1000.05
2023-04-22T06:18:21.874Z,1000.03
2023-04-22T06:19:21.867Z,1000.02
2023-04-22T06:20:21.864Z,1000.02
2023-04-22T06:21:21.862Z,1000.02
2023-04-22T06:22:21.851Z,1000.10
2023-04-22T06:23:21.848Z,1000.10
2023-04-22T06:24:21.837Z,1000.16
2023-04-22T06:25:21.835Z,1000.11
2023-04-22T06:26:21.847Z,1000.11
2023-04-22T06:27:21.828Z,1000.17
2023-04-22T06:28:21.811Z,1000.23
2023-04-22T06:29:21.812Z,1000.20
2023-04-22T06:30:21.806Z,1000.25
2023-04-22T06:31:21.834Z,1000.24
2023-04-22T06:32:21.791Z,1000.27
2023-04-22T06:33:21.789Z,1000.26
2023-04-22T06:34:21.781Z,1000.25
2023-04-22T06:35:21.770Z,1000.22
2023-04-22T06:36:21.760Z,1000.27
2023-04-22T06:37:21.771Z,1000.32
2023-04-22T06:38:21.753Z,1000.31
2023-04-22T06:39:21.757Z,1000.27
2023-04-22T06:40:21.760Z,1000.29
2023-04-22T06:41:21.739Z,1000.29
2023-04-22T06:42:21.722Z,1000.28
2023-04-22T06:43:21.726Z,1000.27
2023-04-22T06:44:21.717Z,1000.26
2023-04-22T06:45:21.717Z,1000.26
2023-04-22T06:46:21.739Z,1000.26
2023-04-22T06:47:21.724Z,1000.24
2023-04-22T06:48:21.697Z,1000.23
2023-04-22T06:49:21.692Z,1000.20
2023-04-22T06:50:21.689Z,1000.19
2023-04-22T06:51:21.689Z,1000.16
2023-04-22T06:52:23.468Z,1000.19
2023-04-22T06:53:21.671Z,1000.19
2023-04-22T06:54:21.670Z,1000.20
2023-04-22T06:55:21.692Z,1000.20
2023-04-22T06:56:21.648Z,1000.18
2023-04-22T06:57:21.667Z,1000.18
2023-04-22T06:58:21.640Z,1000.22
2023-04-22T06:59:21.633Z,1000.23
2023-04-22T07:00:21.626Z,1000.20
2023-04-22T07:01:21.642Z,1000.18
2023-04-22T07:02:21.675Z,1000.26
2023-04-22T07:03:21.722Z,1000.20
2023-04-22T07:04:21.628Z,1000.19
2023-04-22T07:05:21.607Z,1000.20
2023-04-22T07:06:21.590Z,1000.21
2023-04-22T07:07:21.628Z,1000.19
2023-04-22T07:08:21.581Z,1000.14
2023-04-22T07:09:21.574Z,1000.12
2023-04-22T07:10:21.570Z,1000.08
2023-04-22T07:11:21.569Z,1000.15
2023-04-22T07:12:21.557Z,1000.13
2023-04-22T07:13:21.564Z,1000.13
2023-04-22T07:14:21.555Z,1000.16
2023-04-22T07:15:21.543Z,1000.19
2023-04-22T07:16:21.597Z,1000.14
2023-04-22T07:17:21.563Z,1000.11
2023-04-22T07:18:21.520Z,1000.10
2023-04-22T07:19:21.515Z,1000.05
2023-04-22T07:20:21.506Z,999.99
2023-04-22T07:21:21.504Z,1000.07
2023-04-22T07:22:21.501Z,1000.05
2023-04-22T07:23:21.497Z,1000.06
2023-04-22T07:24:21.489Z,1000.04
2023-04-22T07:25:21.479Z,1000.08
2023-04-22T07:26:21.481Z,1000.07
2023-04-22T07:27:21.496Z,1000.05
2023-04-22T07:28:21.468Z,1000.06
2023-04-22T07:29:21.480Z,1000.09
2023-04-22T07:30:21.457Z,1000.06
2023-04-22T07:31:21.472Z,1000.11
2023-04-22T07:32:21.470Z,1000.09
2023-04-22T07:33:21.441Z,1000.10
2023-04-22T07:34:21.443Z,1000.05
2023-04-22T07:35:21.422Z,1000.08
2023-04-22T07:36:21.423Z,1000.14
2023-04-22T07:37:21.422Z,1000.05
2023-04-22T07:38:21.404Z,1000.08
2023-04-22T07:39:21.411Z,1000.03
2023-04-22T07:40:21.398Z,1000.06
2023-04-22T07:41:21.392Z,1000.00
2023-04-22T07:42:21.381Z,999.97
2023-04-22T07:43:21.380Z,999.98
2023-04-22T07:44:21.402Z,999.99
2023-04-22T07:45:21.366Z,999.94
2023-04-22T07:46:21.421Z,999.96
2023-04-22T07:47:21.399Z,999.87
2023-04-22T07:48:21.351Z,999.91
2023-04-22T07:49:21.349Z,999.88
2023-04-22T07:50:21.342Z,999.86
2023-04-22T07:51:21.380Z,999.87
2023-04-22T07:52:21.336Z,999.89
2023-04-22T07:53:21.336Z,999.81
2023-04-22T07:54:21.314Z,999.81
2023-04-22T07:55:21.317Z,999.80
2023-04-22T07:56:21.317Z,999.82
2023-04-22T07:57:21.298Z,999.79
2023-04-22T07:58:21.299Z,999.85
2023-04-22T07:59:21.290Z,999.79
2023-04-22T08:00:21.288Z,999.85
2023-04-22T08:01:21.355Z,999.90
2023-04-22T08:02:21.394Z,1000.03
2023-04-22T08:03:21.441Z,999.97
2023-04-22T08:04:21.477Z,999.95
2023-04-22T08:05:21.283Z,999.88
2023-04-22T08:06:21.260Z,999.89
2023-04-22T08:08:21.242Z,999.86
2023-04-22T08:09:21.250Z,999.88
2023-04-22T08:10:21.239Z,999.83
2023-04-22T08:11:21.237Z,999.81
2023-04-22T08:12:21.236Z,999.74
2023-04-22T08:13:21.224Z,999.75
2023-04-22T08:14:21.216Z,999.67
2023-04-22T08:15:21.213Z,999.72
2023-04-22T08:16:21.263Z,999.73
2023-04-22T08:17:21.207Z,999.71
2023-04-22T08:18:21.196Z,999.58
2023-04-22T08:19:21.207Z,999.67
2023-04-22T08:20:21.202Z,999.74
2023-04-22T08:21:21.202Z,999.65
2023-04-22T08:22:21.179Z,999.73
2023-04-22T08:23:21.176Z,999.66
2023-04-22T08:24:21.169Z,999.69
2023-04-22T08:25:21.171Z,999.69
2023-04-22T08:26:21.158Z,999.69
2023-04-22T08:27:21.161Z,999.65
2023-04-22T08:28:21.155Z,999.65
2023-04-22T08:29:21.147Z,999.58
2023-04-22T08:30:21.157Z,999.63
2023-04-22T08:31:21.191Z,999.59
2023-04-22T08:32:21.151Z,999.64
2023-04-22T08:33:21.130Z,999.60
2023-04-22T08:34:21.125Z,999.70
2023-04-22T08:35:21.126Z,999.58
2023-04-22T08:36:21.113Z,999.62
2023-04-22T08:37:21.110Z,999.54
2023-04-22T08:38:21.132Z,999.67
2023-04-22T08:39:21.102Z,999.65
2023-04-22T08:40:21.096Z,999.59
2023-04-22T08:41:21.091Z,999.63
2023-04-22T08:42:21.084Z,999.61
2023-04-22T08:43:21.083Z,999.59
2023-04-22T08:44:21.079Z,999.63
2023-04-22T08:45:21.080Z,999.50
2023-04-22T08:46:21.085Z,999.52
2023-04-22T08:47:21.063Z,999.56
2023-04-22T08:48:21.058Z,999.55
2023-04-22T08:49:21.057Z,999.59
2023-04-22T08:50:21.126Z,999.55
2023-04-22T08:51:21.048Z,999.50
2023-04-22T08:52:21.042Z,999.66
2023-04-22T08:53:22.964Z,999.60
2023-04-22T08:54:21.038Z,999.62
2023-04-22T08:55:21.033Z,999.56
2023-04-22T08:56:21.023Z,999.57
2023-04-22T08:57:21.020Z,999.50
2023-04-22T08:58:21.014Z,999.55
2023-04-22T08:59:21.021Z,999.47
2023-04-22T09:00:21.020Z,999.55
2023-04-22T09:01:21.023Z,999.56
2023-04-22T09:02:21.039Z,999.61
2023-04-22T09:03:21.057Z,999.59
2023-04-22T09:04:21.068Z,999.59
2023-04-22T09:05:21.004Z,999.48
2023-04-22T09:06:20.982Z,999.49
2023-04-22T09:07:20.989Z,999.51
2023-04-22T09:08:20.972Z,999.40
2023-04-22T09:09:20.985Z,999.45
2023-04-22T09:10:20.979Z,999.44
2023-04-22T09:11:20.972Z,999.39
2023-04-22T09:12:20.954Z,999.39
2023-04-22T09:13:20.956Z,999.47
2023-04-22T09:14:20.948Z,999.47
2023-04-22T09:15:20.943Z,999.45
2023-04-22T09:16:20.968Z,999.46
2023-04-22T09:17:20.956Z,999.50
2023-04-22T09:18:20.934Z,999.56
2023-04-22T09:19:20.930Z,999.52
2023-04-22T09:20:20.924Z,999.49
2023-04-22T09:21:20.922Z,999.52
2023-04-22T09:22:20.919Z,999.50
2023-04-22T09:23:20.909Z,999.59
2023-04-22T09:24:20.906Z,999.54
2023-04-22T09:25:20.911Z,999.50
2023-04-22T09:26:20.933Z,999.58
2023-04-22T09:27:20.895Z,999.51
2023-04-22T09:28:20.891Z,999.53
2023-04-22T09:29:20.889Z,999.47
2023-04-22T09:30:20.884Z,999.45
2023-04-22T09:31:20.918Z,999.44
2023-04-22T09:32:20.935Z,999.38
2023-04-22T09:33:20.878Z,999.56
2023-04-22T09:34:20.869Z,999.50
2023-04-22T09:35:20.864Z,999.48
2023-04-22T09:36:20.863Z,999.47
2023-04-22T09:37:20.862Z,999.41
2023-04-22T09:38:20.879Z,999.42
2023-04-22T09:39:20.866Z,999.41
2023-04-22T09:40:20.852Z,999.58
2023-04-22T09:41:20.845Z,999.45
2023-04-22T09:42:20.846Z,999.46
2023-04-22T09:43:20.848Z,999.45
2023-04-22T09:44:20.858Z,999.38
2023-04-22T09:45:20.838Z,999.40
2023-04-22T09:46:20.980Z,999.32
2023-04-22T09:47:20.837Z,999.38
2023-04-22T09:48:20.835Z,999.34
2023-04-22T09:49:20.830Z,999.37
2023-04-22T09:50:20.823Z,999.48
2023-04-22T09:51:20.822Z,999.37
2023-04-22T09:52:20.812Z,999.35
2023-04-22T09:53:20.817Z,999.39
2023-04-22T09:54:20.818Z,999.47
2023-04-22T09:55:20.824Z,999.42
2023-04-22T09:56:20.812Z,999.44
2023-04-22T09:57:20.813Z,999.44
2023-04-22T09:58:20.796Z,999.39
2023-04-22T09:59:20.800Z,999.40
2023-04-22T10:00:20.805Z,999.40
2023-04-22T10:01:20.853Z,999.55
2023-04-22T10:02:20.853Z,999.38
2023-04-22T10:03:20.809Z,999.50
2023-04-22T10:04:20.860Z,999.67
2023-04-22T10:05:20.795Z,999.68
2023-04-22T10:06:20.784Z,999.62
2023-04-22T10:07:20.802Z,999.65
2023-04-22T10:08:20.787Z,999.66
2023-04-22T10:09:20.776Z,999.61
2023-04-22T10:10:20.776Z,999.56
2023-04-22T10:11:20.773Z,999.55
2023-04-22T10:12:26.388Z,999.57
2023-04-22T10:13:20.780Z,999.56
2023-04-22T10:14:20.789Z,999.52
2023-04-22T10:15:20.779Z,999.36
2023-04-22T10:16:20.783Z,999.38
2023-04-22T10:17:21.054Z,999.39
2023-04-22T10:18:20.775Z,999.47
2023-04-22T10:19:20.770Z,999.44
2023-04-22T10:20:20.770Z,999.39
2023-04-22T10:21:20.764Z,999.41
2023-04-22T10:22:20.766Z,999.42
2023-04-22T10:23:20.784Z,999.45
2023-04-22T10:24:20.754Z,999.44
2023-04-22T10:25:20.834Z,999.40
2023-04-22T10:26:20.761Z,999.44
2023-04-22T10:27:20.757Z,999.45
2023-04-22T10:28:20.753Z,999.43
2023-04-22T10:29:20.797Z,999.38
2023-04-22T10:30:20.760Z,999.36
2023-04-22T10:31:20.786Z,999.39
2023-04-22T10:32:20.847Z,999.37
2023-04-22T10:33:20.848Z,999.38
2023-04-22T10:34:20.780Z,999.39
2023-04-22T10:35:20.754Z,999.40
2023-04-22T10:36:20.757Z,999.40
2023-04-22T10:37:20.753Z,999.39
2023-04-22T10:38:20.740Z,999.38
2023-04-22T10:39:20.751Z,999.45
2023-04-22T10:40:20.764Z,999.53
2023-04-22T10:41:20.745Z,999.50
2023-04-22T10:42:20.755Z,999.44
2023-04-22T10:43:20.741Z,999.43
2023-04-22T10:44:20.751Z,999.49
2023-04-22T10:45:20.734Z,999.48
2023-04-22T10:46:20.757Z,999.49
2023-04-22T10:47:20.745Z,999.47
2023-04-22T10:48:20.738Z,999.42
2023-04-22T10:49:20.753Z,999.43
2023-04-22T10:50:20.732Z,999.48
2023-04-22T10:51:20.732Z,999.46
2023-04-22T10:52:20.733Z,999.43
2023-04-22T10:53:20.738Z,999.49
2023-04-22T10:54:20.732Z,999.51
2023-04-22T10:55:20.730Z,999.48
2023-04-22T10:56:20.761Z,999.49
2023-04-22T10:57:20.727Z,999.61
2023-04-22T10:58:20.744Z,999.58
2023-04-22T10:59:20.731Z,999.62
2023-04-22T11:00:20.729Z,999.61
2023-04-22T11:01:20.740Z,999.52
2023-04-22T11:02:20.765Z,999.53
2023-04-22T11:03:20.888Z,999.51
2023-04-22T11:04:20.949Z,999.54
2023-04-22T11:05:20.735Z,999.62
2023-04-22T11:06:20.745Z,999.57
2023-04-22T11:07:20.834Z,999.60
2023-04-22T11:08:20.755Z,999.60
2023-04-22T11:09:20.743Z,999.61
2023-04-22T11:10:20.733Z,999.56
2023-04-22T11:11:20.747Z,999.62
2023-04-22T11:12:20.757Z,999.61
2023-04-22T11:13:20.746Z,999.58
2023-04-22T11:14:20.756Z,999.74
2023-04-22T11:15:20.742Z,999.65
2023-04-22T11:16:22.348Z,999.66
2023-04-22T11:17:20.796Z,999.67
2023-04-22T11:18:20.760Z,999.66
2023-04-22T11:19:20.745Z,999.65
2023-04-22T11:20:20.747Z,999.63
2023-04-22T11:21:20.745Z,999.74
2023-04-22T11:22:20.749Z,999.80
2023-04-22T11:23:20.752Z,999.74
2023-04-22T11:24:20.767Z,999.83
2023-04-22T11:25:20.741Z,999.71
2023-04-22T11:26:20.752Z,999.77
2023-04-22T11:27:20.747Z,999.66
2023-04-22T11:28:21.678Z,999.67
2023-04-22T11:29:20.746Z,999.72
2023-04-22T11:30:20.767Z,999.69
2023-04-22T11:31:20.800Z,999.66
2023-04-22T11:32:20.750Z,999.74
2023-04-22T11:33:20.748Z,999.76
2023-04-22T11:34:20.752Z,999.71
2023-04-22T11:35:20.754Z,999.74
2023-04-22T11:36:20.752Z,999.65
2023-04-22T11:37:20.750Z,999.67
2023-04-22T11:38:20.761Z,999.62
2023-04-22T11:39:20.772Z,999.61
2023-04-22T11:40:29.335Z,999.54
2023-04-22T11:41:20.756Z,999.53
2023-04-22T11:42:20.752Z,999.55
2023-04-22T11:43:20.766Z,999.56
2023-04-22T11:44:20.749Z,999.57
2023-04-22T11:45:20.750Z,999.59
2023-04-22T11:46:22.470Z,999.60
2023-04-22T11:47:20.761Z,999.58
2023-04-22T11:48:20.752Z,999.57
2023-04-22T11:49:20.758Z,999.62
2023-04-22T11:50:20.745Z,999.72
2023-04-22T11:51:20.752Z,999.67
2023-04-22T11:52:21.335Z,999.61
2023-04-22T11:53:20.746Z,999.60
2023-04-22T11:54:20.740Z,999.63
2023-04-22T11:55:20.742Z,999.57
2023-04-22T11:56:20.745Z,999.49
2023-04-22T11:57:20.747Z,999.51
2023-04-22T11:58:20.745Z,999.49
2023-04-22T11:59:20.736Z,999.49
2023-04-22T12:00:20.747Z,999.51
2023-04-22T12:01:20.737Z,999.46
2023-04-22T12:02:20.883Z,999.47
2023-04-22T12:03:20.949Z,999.50
2023-04-22T12:04:20.800Z,999.54
2023-04-22T12:05:20.737Z,999.52
2023-04-22T12:06:20.726Z,999.49
2023-04-22T12:07:20.722Z,999.52
2023-04-22T12:08:20.728Z,999.50
2023-04-22T12:09:20.718Z,999.48
2023-04-22T12:10:20.719Z,999.44
2023-04-22T12:11:20.719Z,999.48
2023-04-22T12:12:20.719Z,999.47
2023-04-22T12:13:20.712Z,999.46
2023-04-22T12:14:20.722Z,999.51
2023-04-22T12:15:20.713Z,999.46